createdAt,value
2022-12-01T00:01:10.323Z,100521.72
2022-12-01T00:03:37.370Z,100528.03
2022-12-01T00:06:07.184Z,100522.03
2022-12-01T00:08:34.064Z,100519.53
2022-12-01T00:11:12.076Z,100523.13
2022-12-01T00:13:38.517Z,100515.13
2022-12-01T00:16:12.691Z,100513.59
2022-12-01T00:18:39.299Z,100518.19
2022-12-01T00:21:06.019Z,100522.56
2022-12-01T00:23:32.603Z,100521.66
2022-12-01T00:26:04.223Z,100522.50
2022-12-01T00:28:30.746Z,100517.38
2022-12-01T00:30:57.178Z,100525.19
2022-12-01T00:33:23.642Z,100527.81
2022-12-01T00:35:50.100Z,100529.66
2022-12-01T00:38:16.629Z,100524.50
2022-12-01T00:40:43.025Z,100526.28
2022-12-01T00:43:09.529Z,100524.63
2022-12-01T00:45:36.010Z,100525.53
2022-12-01T00:48:02.504Z,100524.94
2022-12-01T00:50:28.951Z,100534.53
2022-12-01T00:52:55.354Z,100532.69
2022-12-01T00:55:21.799Z,100526.56
2022-12-01T00:57:48.833Z,100531.16
2022-12-01T01:00:17.060Z,100531.16
2022-12-01T01:02:43.673Z,100526.97
2022-12-01T01:05:10.170Z,100534.00
2022-12-01T01:07:36.976Z,100538.50
2022-12-01T01:10:04.124Z,100537.88
2022-12-01T01:12:30.611Z,100537.97
2022-12-01T01:14:57.014Z,100537.13
2022-12-01T01:17:23.572Z,100543.28
2022-12-01T01:19:50.227Z,100549.56
2022-12-01T01:22:16.844Z,100544.25
2022-12-01T01:24:43.508Z,100541.56
2022-12-01T01:27:09.996Z,100551.06
2022-12-01T01:29:36.820Z,100552.75
2022-12-01T01:32:04.225Z,100546.78
2022-12-01T01:34:30.822Z,100552.06
2022-12-01T01:36:57.285Z,100547.63
2022-12-01T01:39:23.760Z,100551.00
2022-12-01T01:41:50.230Z,100549.34
2022-12-01T01:44:50.639Z,100553.84
2022-12-01T01:47:35.634Z,100556.59
2022-12-01T01:50:14.208Z,100557.31
2022-12-01T01:52:44.308Z,100559.84
2022-12-01T01:55:11.599Z,100555.44
2022-12-01T01:57:38.746Z,100560.75
2022-12-01T02:00:11.594Z,100553.84
2022-12-01T02:02:44.553Z,100554.69
2022-12-01T02:05:23.965Z,100556.63
2022-12-01T02:07:51.070Z,100562.63
2022-12-01T02:10:22.466Z,100559.25
2022-12-01T02:13:15.842Z,100566.38
2022-12-01T02:15:56.941Z,100568.16
2022-12-01T02:18:54.394Z,100566.44
2022-12-01T02:21:27.659Z,100569.97
2022-12-01T02:24:05.617Z,100566.50
2022-12-01T02:26:49.652Z,100563.03
2022-12-01T02:29:43.996Z,100560.41
2022-12-01T02:32:30.704Z,100564.00
2022-12-01T02:35:02.171Z,100569.25
2022-12-01T02:37:53.989Z,100564.97
2022-12-01T02:40:26.772Z,100565.88
2022-12-01T02:43:05.412Z,100564.03
2022-12-01T02:45:54.335Z,100562.09
2022-12-01T02:48:30.246Z,100555.25
2022-12-01T02:50:59.773Z,100560.50
2022-12-01T02:53:26.311Z,100561.66
2022-12-01T02:55:54.632Z,100563.50
2022-12-01T02:58:21.765Z,100565.16
2022-12-01T03:01:24.629Z,100564.41
2022-12-01T03:04:34.545Z,100558.00
2022-12-01T03:07:13.123Z,100563.13
2022-12-01T03:09:55.210Z,100561.41
2022-12-01T03:12:40.056Z,100567.72
2022-12-01T03:15:21.754Z,100555.84
2022-12-01T03:18:19.204Z,100557.44
2022-12-01T03:21:07.470Z,100556.41
2022-12-01T03:23:37.821Z,100544.94
2022-12-01T03:26:09.338Z,100551.25
2022-12-01T03:28:48.654Z,100548.56
2022-12-01T03:31:17.060Z,100553.81
2022-12-01T03:33:49.180Z,100546.19
2022-12-01T03:36:40.417Z,100542.75
2022-12-01T03:39:12.008Z,100547.34
2022-12-01T03:41:43.430Z,100555.44
2022-12-01T03:44:19.207Z,100551.91
2022-12-01T03:46:54.066Z,100559.66
2022-12-01T03:49:21.651Z,100557.97
2022-12-01T03:52:11.071Z,100561.72
2022-12-01T03:54:46.602Z,100567.03
2022-12-01T03:57:24.132Z,100564.41
2022-12-01T03:59:51.144Z,100572.06
2022-12-01T04:02:18.295Z,100564.31
2022-12-01T04:04:44.730Z,100561.69
2022-12-01T04:07:13.383Z,100568.53
2022-12-01T04:09:41.524Z,100571.94
2022-12-01T04:12:29.385Z,100574.56
2022-12-01T04:15:05.317Z,100572.00
2022-12-01T04:17:32.212Z,100573.78
2022-12-01T04:19:58.665Z,100579.09
2022-12-01T04:22:25.272Z,100577.31
2022-12-01T04:24:52.251Z,100577.78
2022-12-01T04:27:19.407Z,100576.06
2022-12-01T04:29:46.067Z,100577.72
2022-12-01T04:32:13.496Z,100578.66
2022-12-01T04:34:39.930Z,100575.31
2022-12-01T04:37:07.263Z,100583.19
2022-12-01T04:39:34.341Z,100581.41
2022-12-01T04:42:00.753Z,100581.72
2022-12-01T04:44:33.018Z,100575.59
2022-12-01T04:47:01.231Z,100580.06
2022-12-01T04:49:27.910Z,100578.97
2022-12-01T04:51:54.486Z,100578.16
2022-12-01T04:54:20.955Z,100576.72
2022-12-01T04:56:47.432Z,100585.44
2022-12-01T04:59:13.878Z,100576.88
2022-12-01T05:01:40.563Z,100582.88
2022-12-01T05:04:07.263Z,100574.31
2022-12-01T05:06:33.751Z,100575.91
2022-12-01T05:09:01.395Z,100585.50
2022-12-01T05:11:29.406Z,100583.78
2022-12-01T05:13:56.032Z,100581.16
2022-12-01T05:16:25.404Z,100580.59
2022-12-01T05:19:17.183Z,100588.44
2022-12-01T05:21:45.047Z,100583.91
2022-12-01T05:24:12.498Z,100590.81
2022-12-01T05:26:39.825Z,100585.63
2022-12-01T05:29:06.359Z,100586.44
2022-12-01T05:31:32.903Z,100584.78
2022-12-01T05:33:59.524Z,100584.03
2022-12-01T05:36:25.974Z,100580.44
2022-12-01T05:38:52.455Z,100582.25
2022-12-01T05:41:18.940Z,100575.34
2022-12-01T05:43:45.535Z,100576.16
2022-12-01T05:46:12.021Z,100577.88
2022-12-01T05:48:38.518Z,100584.72
2022-12-01T05:51:13.047Z,100578.47
2022-12-01T05:53:39.506Z,100587.47
2022-12-01T05:56:07.301Z,100595.31
2022-12-01T05:58:34.647Z,100597.19
2022-12-01T06:01:01.260Z,100593.75
2022-12-01T06:03:27.768Z,100591.88
2022-12-01T06:05:54.241Z,100596.06
2022-12-01T06:08:20.672Z,100607.47
2022-12-01T06:10:47.187Z,100604.47
2022-12-01T06:13:13.596Z,100600.19
2022-12-01T06:15:40.055Z,100608.94
2022-12-01T06:18:06.464Z,100617.50
2022-12-01T06:20:32.894Z,100613.22
2022-12-01T06:22:59.555Z,100599.22
2022-12-01T06:25:26.002Z,100613.03
2022-12-01T06:27:57.260Z,100614.03
2022-12-01T06:30:23.755Z,100617.50
2022-12-01T06:32:50.245Z,100617.28
2022-12-01T06:35:16.735Z,100610.19
2022-12-01T06:37:43.163Z,100605.81
2022-12-01T06:40:10.288Z,100610.13
2022-12-01T06:42:36.709Z,100618.88
2022-12-01T06:45:03.228Z,100614.53
2022-12-01T06:47:29.680Z,100616.28
2022-12-01T06:49:56.082Z,100630.09
2022-12-01T06:52:22.529Z,100628.38
2022-12-01T06:54:49.188Z,100634.72
2022-12-01T06:57:15.957Z,100631.44
2022-12-01T06:59:42.687Z,100634.19
2022-12-01T07:02:11.406Z,100635.78
2022-12-01T07:04:37.945Z,100645.19
2022-12-01T07:07:05.546Z,100654.13
2022-12-01T07:09:32.005Z,100650.88
2022-12-01T07:11:58.457Z,100653.53
2022-12-01T07:14:26.561Z,100648.13
2022-12-01T07:16:53.426Z,100647.06
2022-12-01T07:19:20.030Z,100659.19
2022-12-01T07:21:46.509Z,100658.47
2022-12-01T07:24:13.300Z,100656.75
2022-12-01T07:26:40.959Z,100667.06
2022-12-01T07:29:09.040Z,100665.38
2022-12-01T07:31:38.869Z,100661.28
2022-12-01T07:34:05.641Z,100663.88
2022-12-01T07:36:32.059Z,100670.81
2022-12-01T07:38:58.510Z,100679.38
2022-12-01T07:41:25.303Z,100675.03
2022-12-01T07:43:51.864Z,100673.03
2022-12-01T07:46:23.686Z,100674.66
2022-12-01T07:48:51.518Z,100674.66
2022-12-01T07:51:18.500Z,100680.94
2022-12-01T07:53:46.014Z,100686.41
2022-12-01T07:56:12.493Z,100681.16
2022-12-01T07:58:39.170Z,100679.44
2022-12-01T08:01:11.649Z,100681.22
2022-12-01T08:03:38.540Z,100677.00
2022-12-01T08:06:06.001Z,100682.31
2022-12-01T08:08:34.092Z,100679.63
2022-12-01T08:11:02.232Z,100680.69
2022-12-01T08:13:28.838Z,100678.13
2022-12-01T08:15:55.574Z,100674.84
2022-12-01T08:18:24.552Z,100686.03
2022-12-01T08:20:51.491Z,100688.53
2022-12-01T08:23:18.200Z,100692.59
2022-12-01T08:25:44.636Z,100701.19
2022-12-01T08:28:11.021Z,100699.34
2022-12-01T08:30:37.471Z,100689.69
2022-12-01T08:33:03.889Z,100696.44
2022-12-01T08:35:30.298Z,100698.88
2022-12-01T08:37:56.757Z,100696.97
2022-12-01T08:40:23.207Z,100700.59
2022-12-01T08:42:51.893Z,100696.19
2022-12-01T08:45:18.530Z,100703.16
2022-12-01T08:47:44.981Z,100700.53
2022-12-01T08:50:12.180Z,100703.94
2022-12-01T08:52:38.627Z,100703.09
2022-12-01T08:55:06.143Z,100703.03
2022-12-01T08:57:32.604Z,100699.50
2022-12-01T08:59:59.058Z,100702.00
2022-12-01T09:02:25.661Z,100709.81
2022-12-01T09:04:52.369Z,100713.41
2022-12-01T09:07:24.584Z,100714.22
2022-12-01T09:09:52.905Z,100709.06
2022-12-01T09:12:19.723Z,100709.13
2022-12-01T09:14:48.088Z,100712.50
2022-12-01T09:17:15.359Z,100706.31
2022-12-01T09:19:42.495Z,100703.63
2022-12-01T09:22:09.661Z,100704.41
2022-12-01T09:24:36.257Z,100714.47
2022-12-01T09:27:03.391Z,100713.66
2022-12-01T09:29:30.185Z,100717.09
2022-12-01T09:31:57.664Z,100713.88
2022-12-01T09:34:24.598Z,100715.59
2022-12-01T09:36:50.989Z,100715.38
2022-12-01T09:39:20.941Z,100715.50
2022-12-01T09:41:50.917Z,100711.03
2022-12-01T09:44:34.710Z,100715.31
2022-12-01T09:47:20.010Z,100712.38
2022-12-01T09:50:21.761Z,100704.28
2022-12-01T09:52:57.952Z,100698.09
2022-12-01T09:55:25.529Z,100694.38
2022-12-01T09:57:53.759Z,100693.16
2022-12-01T10:00:31.918Z,100696.66
2022-12-01T10:03:22.150Z,100696.56
2022-12-01T10:06:27.713Z,100690.72
2022-12-01T10:08:45.435Z,100691.88
2022-12-01T10:11:24.225Z,100691.59
2022-12-01T10:13:50.643Z,100677.69
2022-12-01T10:16:25.630Z,100680.34
2022-12-01T10:19:08.837Z,100678.53
2022-12-01T10:21:58.605Z,100673.13
2022-12-01T10:24:47.757Z,100667.81
2022-12-01T10:27:44.671Z,100668.72
2022-12-01T10:30:19.063Z,100657.31
2022-12-01T10:33:17.399Z,100658.84
2022-12-01T10:35:43.878Z,100650.66
2022-12-01T10:38:22.249Z,100648.88
2022-12-01T10:40:50.708Z,100654.66
2022-12-01T10:43:17.311Z,100648.53
2022-12-01T10:45:45.428Z,100637.84
2022-12-01T10:48:18.844Z,100641.47
2022-12-01T10:50:53.228Z,100625.88
2022-12-01T10:53:22.682Z,100633.91
2022-12-01T10:56:02.135Z,100624.28
2022-12-01T10:58:28.749Z,100624.84
2022-12-01T11:01:00.077Z,100627.34
2022-12-01T11:03:30.699Z,100623.91
2022-12-01T11:06:00.346Z,100626.69
2022-12-01T11:08:46.809Z,100623.59
2022-12-01T11:11:39.967Z,100624.63
2022-12-01T11:14:17.624Z,100622.78
2022-12-01T11:16:47.095Z,100618.59
2022-12-01T11:19:32.523Z,100618.59
2022-12-01T11:22:00.841Z,100614.25
2022-12-01T11:24:44.721Z,100613.19
2022-12-01T11:28:01.706Z,100615.09
2022-12-01T11:30:29.579Z,100610.03
2022-12-01T11:33:00.574Z,100614.16
2022-12-01T11:35:30.322Z,100615.66
2022-12-01T11:38:29.304Z,100609.50
2022-12-01T11:40:53.855Z,100609.28
2022-12-01T11:43:42.613Z,100603.84
2022-12-01T11:46:13.076Z,100614.53
2022-12-01T11:48:39.541Z,100609.44
2022-12-01T11:51:19.588Z,100604.94
2022-12-01T11:53:46.296Z,100597.50
2022-12-01T11:56:12.673Z,100601.72
2022-12-01T11:58:39.223Z,100601.16
2022-12-01T12:01:21.709Z,100597.22
2022-12-01T12:04:17.795Z,100599.84
2022-12-01T12:06:59.150Z,100598.13
2022-12-01T12:09:54.475Z,100601.56
2022-12-01T12:12:29.760Z,100591.97
2022-12-01T12:14:58.873Z,100598.94
2022-12-01T12:17:31.983Z,100595.28
2022-12-01T12:20:08.830Z,100590.00
2022-12-01T12:22:57.560Z,100590.97
2022-12-01T12:25:31.063Z,100588.19
2022-12-01T12:28:17.170Z,100584.53
2022-12-01T12:31:05.348Z,100575.97
2022-12-01T12:33:49.158Z,100576.09
2022-12-01T12:36:31.870Z,100569.94
2022-12-01T12:39:29.508Z,100575.69
2022-12-01T12:41:56.783Z,100567.78
2022-12-01T12:44:37.342Z,100563.44
2022-12-01T12:47:30.193Z,100561.59
2022-12-01T12:50:18.162Z,100577.31
2022-12-01T12:52:47.830Z,100567.81
2022-12-01T12:55:18.659Z,100567.59
2022-12-01T12:57:58.288Z,100562.34
2022-12-01T13:00:27.140Z,100569.38
2022-12-01T13:03:00.059Z,100567.72
2022-12-01T13:05:49.155Z,100566.53
2022-12-01T13:08:23.472Z,100566.06
2022-12-01T13:11:20.367Z,100564.69
2022-12-01T13:14:04.162Z,100568.91
2022-12-01T13:16:34.466Z,100566.19
2022-12-01T13:19:07.584Z,100568.34
2022-12-01T13:21:37.510Z,100563.25
2022-12-01T13:24:05.125Z,100558.06
2022-12-01T13:26:34.818Z,100562.56
2022-12-01T13:29:05.456Z,100558.69
2022-12-01T13:31:42.384Z,100545.94
2022-12-01T13:34:21.031Z,100553.16
2022-12-01T13:36:52.113Z,100554.94
2022-12-01T13:39:35.410Z,100552.06
2022-12-01T13:42:07.578Z,100555.38
2022-12-01T13:44:40.350Z,100556.28
2022-12-01T13:47:09.778Z,100557.09
2022-12-01T13:49:39.437Z,100553.53
2022-12-01T13:52:19.032Z,100553.78
2022-12-01T13:55:07.382Z,100545.16
2022-12-01T13:57:44.381Z,100538.19
2022-12-01T14:00:28.521Z,100537.44
2022-12-01T14:03:16.516Z,100536.38
2022-12-01T14:06:05.515Z,100538.88
2022-12-01T14:09:02.975Z,100529.91
2022-12-01T14:11:29.903Z,100528.94
2022-12-01T14:13:59.954Z,100520.91
2022-12-01T14:16:45.755Z,100534.78
2022-12-01T14:19:33.593Z,100523.44
2022-12-01T14:22:01.129Z,100526.56
2022-12-01T14:24:42.179Z,100519.28
2022-12-01T14:27:11.691Z,100518.56
2022-12-01T14:29:39.882Z,100525.09
2022-12-01T14:32:09.095Z,100520.00
2022-12-01T14:34:37.224Z,100515.56
2022-12-01T14:37:12.366Z,100525.09
2022-12-01T14:39:44.981Z,100517.38
2022-12-01T14:42:11.445Z,100520.59
2022-12-01T14:44:48.449Z,100515.00
2022-12-01T14:47:23.970Z,100518.88
2022-12-01T14:49:55.510Z,100519.09
2022-12-01T14:52:40.186Z,100521.75
2022-12-01T14:55:28.565Z,100523.47
2022-12-01T14:58:05.126Z,100521.59
2022-12-01T15:00:37.019Z,100521.66
2022-12-01T15:03:09.501Z,100518.13
2022-12-01T15:05:43.401Z,100511.84
2022-12-01T15:08:42.020Z,100519.88
2022-12-01T15:11:21.895Z,100517.25
2022-12-01T15:13:53.867Z,100513.03
2022-12-01T15:16:22.842Z,100513.78
2022-12-01T15:18:49.990Z,100518.00
2022-12-01T15:21:26.143Z,100515.28
2022-12-01T15:24:04.108Z,100520.47
2022-12-01T15:26:36.175Z,100523.19
2022-12-01T15:29:46.760Z,100524.50
2022-12-01T15:32:16.366Z,100524.50
2022-12-01T15:34:44.899Z,100518.44
2022-12-01T15:37:14.593Z,100521.31
2022-12-01T15:39:48.437Z,100518.78
2022-12-01T15:42:28.278Z,100516.84
2022-12-01T15:45:21.681Z,100516.09
2022-12-01T15:47:49.877Z,100518.63
2022-12-01T15:50:29.468Z,100516.91
2022-12-01T15:52:57.071Z,100525.53
2022-12-01T15:55:54.153Z,100522.22
2022-12-01T15:58:25.810Z,100516.28
2022-12-01T16:01:19.287Z,100521.41
2022-12-01T16:03:52.888Z,100522.28
2022-12-01T16:06:20.903Z,100521.34
2022-12-01T16:09:32.252Z,100517.72
2022-12-01T16:12:17.636Z,100523.69
2022-12-01T16:14:57.046Z,100526.38
2022-12-01T16:17:24.106Z,100524.66
2022-12-01T16:20:18.034Z,100523.69
2022-12-01T16:22:51.772Z,100520.22
2022-12-01T16:25:24.481Z,100519.53
2022-12-01T16:27:52.945Z,100519.53
2022-12-01T16:30:22.320Z,100521.47
2022-12-01T16:32:49.358Z,100530.31
2022-12-01T16:35:29.162Z,100522.72
2022-12-01T16:37:56.150Z,100524.66
2022-12-01T16:40:22.807Z,100533.31
2022-12-01T16:42:52.152Z,100534.22
2022-12-01T16:45:19.523Z,100533.34
2022-12-01T16:47:47.838Z,100538.81
2022-12-01T16:50:19.377Z,100538.09
2022-12-01T16:52:46.167Z,100525.97
2022-12-01T16:55:26.791Z,100533.94
2022-12-01T16:57:53.343Z,100541.75
2022-12-01T17:00:29.186Z,100533.91
2022-12-01T17:03:14.825Z,100539.97
2022-12-01T17:05:41.314Z,100542.47
2022-12-01T17:08:07.850Z,100537.00
2022-12-01T17:10:34.374Z,100539.41
2022-12-01T17:13:02.871Z,100546.31
2022-12-01T17:15:30.399Z,100550.59
2022-12-01T17:18:07.844Z,100542.03
2022-12-01T17:20:40.520Z,100554.41
2022-12-01T17:23:07.170Z,100539.06
2022-12-01T17:25:33.642Z,100549.41
2022-12-01T17:28:00.155Z,100553.66
2022-12-01T17:30:26.565Z,100545.03
2022-12-01T17:32:53.084Z,100540.84
2022-12-01T17:35:22.351Z,100546.03
2022-12-01T17:37:48.978Z,100543.41
2022-12-01T17:40:15.613Z,100545.97
2022-12-01T17:42:52.989Z,100549.38
2022-12-01T17:45:20.344Z,100549.53
2022-12-01T17:48:00.508Z,100545.72
2022-12-01T17:50:27.118Z,100541.13
2022-12-01T17:52:53.565Z,100541.00
2022-12-01T17:55:20.273Z,100542.78
2022-12-01T17:57:46.895Z,100551.50
2022-12-01T18:00:15.063Z,100544.66
2022-12-01T18:02:41.641Z,100536.84
2022-12-01T18:05:08.725Z,100542.91
2022-12-01T18:07:35.230Z,100551.50
2022-12-01T18:10:18.546Z,100540.91
2022-12-01T18:12:45.267Z,100537.34
2022-12-01T18:15:12.527Z,100542.31
2022-12-01T18:17:39.435Z,100545.13
2022-12-01T18:20:07.005Z,100541.69
2022-12-01T18:22:33.435Z,100536.47
2022-12-01T18:24:59.948Z,100534.53
2022-12-01T18:27:26.357Z,100537.84
2022-12-01T18:29:52.952Z,100529.75
2022-12-01T18:32:19.365Z,100530.66
2022-12-01T18:34:45.829Z,100533.34
2022-12-01T18:37:12.289Z,100528.09
2022-12-01T18:39:38.725Z,100540.19
2022-12-01T18:42:05.284Z,100543.97
2022-12-01T18:44:31.920Z,100541.34
2022-12-01T18:46:58.947Z,100540.47
2022-12-01T18:49:25.542Z,100538.56
2022-12-01T18:51:51.977Z,100539.34
2022-12-01T18:54:18.517Z,100542.84
2022-12-01T18:56:46.514Z,100543.22
2022-12-01T18:59:24.590Z,100539.06
2022-12-01T19:01:52.297Z,100539.25
2022-12-01T19:04:18.932Z,100542.91
2022-12-01T19:10:04.166Z,100538.91
2022-12-01T19:12:30.614Z,100545.03
2022-12-01T19:14:57.115Z,100543.44
2022-12-01T19:17:23.786Z,100539.91
2022-12-01T19:19:50.193Z,100533.56
2022-12-01T19:22:17.501Z,100540.41
2022-12-01T19:24:49.894Z,100528.34
2022-12-01T19:27:20.383Z,100535.06
2022-12-01T19:29:49.780Z,100523.41
2022-12-01T19:32:18.810Z,100528.56
2022-12-01T19:34:45.889Z,100524.03
2022-12-01T19:37:14.059Z,100532.72
2022-12-01T19:39:40.714Z,100520.44
2022-12-01T19:42:08.064Z,100524.84
2022-12-01T19:44:34.547Z,100518.91
2022-12-01T19:47:00.999Z,100516.28
2022-12-01T19:49:27.575Z,100516.34
2022-12-01T19:51:53.985Z,100512.13
2022-12-01T19:54:20.881Z,100512.06
2022-12-01T19:56:47.349Z,100512.81
2022-12-01T19:59:14.810Z,100512.72
2022-12-01T20:01:41.363Z,100519.59
2022-12-01T20:04:08.148Z,100521.28
2022-12-01T20:06:35.974Z,100515.22
2022-12-01T20:09:05.431Z,100525.63
2022-12-01T20:11:35.445Z,100532.50
2022-12-01T20:14:03.943Z,100529.97
2022-12-01T20:16:30.927Z,100527.81
2022-12-01T20:19:01.526Z,100526.16
2022-12-01T20:21:31.327Z,100522.88
2022-12-01T20:24:04.163Z,100520.50
2022-12-01T20:26:33.241Z,100525.78
2022-12-01T20:29:03.398Z,100521.56
2022-12-01T20:31:31.299Z,100523.38
2022-12-01T20:33:59.911Z,100515.50
2022-12-01T20:36:27.062Z,100510.88
2022-12-01T20:38:54.308Z,100513.31
2022-12-01T20:41:21.527Z,100506.06
2022-12-01T20:43:48.363Z,100509.38
2022-12-01T20:46:15.308Z,100507.59
2022-12-01T20:48:42.045Z,100511.19
2022-12-01T20:51:09.245Z,100512.72
2022-12-01T20:54:19.739Z,100510.22
2022-12-01T20:56:38.050Z,100504.97
2022-12-01T20:59:04.567Z,100506.72
2022-12-01T21:01:31.963Z,100501.53
2022-12-01T21:03:58.638Z,100505.75
2022-12-01T21:06:25.310Z,100493.38
2022-12-01T21:08:51.835Z,100501.03
2022-12-01T21:11:46.203Z,100498.41
2022-12-01T21:14:18.463Z,100498.41
2022-12-01T21:16:48.914Z,100494.91
2022-12-01T21:19:22.979Z,100503.03
2022-12-01T21:21:49.496Z,100504.03
2022-12-01T21:24:22.071Z,100504.84
2022-12-01T21:27:02.155Z,100501.66
2022-12-01T21:29:38.684Z,100503.56
2022-12-01T21:32:26.019Z,100500.06
2022-12-01T21:34:54.064Z,100501.09
2022-12-01T21:37:22.680Z,100496.91
2022-12-01T21:39:50.926Z,100505.09
2022-12-01T21:42:28.081Z,100508.03
2022-12-01T21:44:56.062Z,100504.06
2022-12-01T21:47:24.543Z,100505.84
2022-12-01T21:49:54.130Z,100511.22
2022-12-01T21:52:42.501Z,100507.72
2022-12-01T21:55:29.223Z,100505.25
2022-12-01T21:57:59.976Z,100502.84
2022-12-01T22:00:32.403Z,100509.81
2022-12-01T22:03:07.868Z,100510.63
2022-12-01T22:06:01.045Z,100501.72
2022-12-01T22:08:35.439Z,100506.94
2022-12-01T22:11:11.366Z,100502.47
2022-12-01T22:13:44.955Z,100497.28
2022-12-01T22:16:15.248Z,100501.63
2022-12-01T22:18:44.714Z,100502.41
2022-12-01T22:21:20.181Z,100497.88
2022-12-01T22:23:46.725Z,100494.41
2022-12-01T22:26:19.748Z,100491.84
2022-12-01T22:28:47.642Z,100492.91
2022-12-01T22:31:15.856Z,100486.69
2022-12-01T22:33:42.413Z,100493.00
2022-12-01T22:36:29.594Z,100488.72
2022-12-01T22:38:57.438Z,100486.09
2022-12-01T22:41:23.979Z,100484.44
2022-12-01T22:43:57.540Z,100482.66
2022-12-01T22:46:32.637Z,100477.53
2022-12-01T22:49:20.089Z,100478.38
2022-12-01T22:51:59.810Z,100482.72
2022-12-01T22:54:32.700Z,100483.53
2022-12-01T22:57:25.244Z,100482.59
2022-12-01T22:59:58.558Z,100478.31
2022-12-01T23:02:37.961Z,100472.44
2022-12-01T23:05:28.106Z,100468.91
2022-12-01T23:07:57.076Z,100470.50
2022-12-01T23:10:27.298Z,100467.97
2022-12-01T23:12:58.680Z,100464.56
2022-12-01T23:15:41.871Z,100465.59
2022-12-01T23:18:22.993Z,100464.59
2022-12-01T23:20:58.801Z,100459.41
2022-12-01T23:23:36.309Z,100462.28
2022-12-01T23:26:09.734Z,100450.94
2022-12-01T23:28:40.608Z,100454.56
2022-12-01T23:31:11.615Z,100450.19
2022-12-01T23:33:40.993Z,100438.00
2022-12-01T23:36:37.571Z,100438.19
2022-12-01T23:39:13.666Z,100432.41
2022-12-01T23:41:46.634Z,100435.94
2022-12-01T23:44:26.449Z,100428.22
2022-12-01T23:46:55.733Z,100423.78
2022-12-01T23:49:33.710Z,100422.06
2022-12-01T23:52:01.230Z,100422.72
2022-12-01T23:54:32.747Z,100417.31
2022-12-01T23:57:27.643Z,100413.72
